createdAt,value
2023-04-25T00:01:34.744Z,10.88
2023-04-25T00:04:39.477Z,10.84
2023-04-25T00:07:43.837Z,10.81
2023-04-25T00:10:46.304Z,10.99
2023-04-25T00:13:50.848Z,10.86
2023-04-25T00:16:53.404Z,10.82
2023-04-25T00:19:55.836Z,10.89
2023-04-25T00:22:58.174Z,10.88
2023-04-25T00:26:00.594Z,10.90
2023-04-25T00:29:03.150Z,10.92
2023-04-25T00:32:05.728Z,11.02
2023-04-25T00:35:08.352Z,11.02
2023-04-25T00:38:11.018Z,10.87
2023-04-25T00:41:13.465Z,10.84
2023-04-25T00:44:18.133Z,11.01
2023-04-25T00:47:20.763Z,10.62
2023-04-25T00:50:23.151Z,10.94
2023-04-25T00:53:27.686Z,11.21
2023-04-25T00:56:30.645Z,11.14
2023-04-25T00:59:33.156Z,11.05
2023-04-25T01:02:37.429Z,10.84
2023-04-25T01:05:40.608Z,10.82
2023-04-25T01:08:42.967Z,10.72
2023-04-25T01:11:45.731Z,10.43
2023-04-25T01:14:48.178Z,10.45
2023-04-25T01:17:50.684Z,10.52
2023-04-25T01:20:54.043Z,10.49
2023-04-25T01:23:57.565Z,10.64
2023-04-25T01:27:03.934Z,10.64
2023-04-25T01:30:07.345Z,10.40
2023-04-25T01:33:10.724Z,10.45
2023-04-25T01:36:14.705Z,10.43
2023-04-25T01:39:17.599Z,10.52
2023-04-25T01:42:21.253Z,10.55
2023-04-25T01:45:23.714Z,10.50
2023-04-25T01:48:27.455Z,10.48
2023-04-25T01:51:31.099Z,10.25
2023-04-25T01:54:33.486Z,10.34
2023-04-25T01:57:36.723Z,10.40
2023-04-25T02:00:40.232Z,10.43
2023-04-25T02:03:42.747Z,10.53
2023-04-25T02:06:53.700Z,10.45
2023-04-25T02:09:57.317Z,10.42
2023-04-25T02:13:02.302Z,10.46
2023-04-25T02:16:18.128Z,10.45
2023-04-25T02:19:20.498Z,10.41
2023-04-25T02:22:23.289Z,10.28
2023-04-25T02:25:26.200Z,10.37
2023-04-25T02:28:29.349Z,10.39
2023-04-25T02:31:31.899Z,10.31
2023-04-25T02:34:34.448Z,10.44
2023-04-25T02:37:38.562Z,10.31
2023-04-25T02:40:42.576Z,10.27
2023-04-25T02:43:44.998Z,10.34
2023-04-25T02:46:47.751Z,10.31
2023-04-25T02:49:50.166Z,10.22
2023-04-25T02:52:52.666Z,10.22
2023-04-25T02:56:01.095Z,10.21
2023-04-25T02:59:03.518Z,10.32
2023-04-25T03:02:07.669Z,10.00
2023-04-25T03:05:10.263Z,10.15
2023-04-25T03:08:14.193Z,10.04
2023-04-25T03:11:16.578Z,9.82
2023-04-25T03:14:19.610Z,10.13
2023-04-25T03:17:21.947Z,10.05
2023-04-25T03:20:25.897Z,9.90
2023-04-25T03:23:28.315Z,9.99
2023-04-25T03:26:31.001Z,10.02
2023-04-25T03:29:33.348Z,9.92
2023-04-25T03:32:39.595Z,9.84
2023-04-25T03:35:43.790Z,9.64
2023-04-25T03:38:47.594Z,9.67
2023-04-25T03:41:51.661Z,9.44
2023-04-25T03:44:55.762Z,9.35
2023-04-25T03:47:58.456Z,9.28
2023-04-25T03:51:04.257Z,8.87
2023-04-25T03:54:09.316Z,8.94
2023-04-25T03:57:29.025Z,8.73
2023-04-25T04:00:31.530Z,8.78
2023-04-25T04:03:34.309Z,8.90
2023-04-25T04:06:37.538Z,8.54
2023-04-25T04:09:54.231Z,8.72
2023-04-25T04:13:02.869Z,8.76
2023-04-25T04:16:05.665Z,8.73
2023-04-25T04:19:08.531Z,9.07
2023-04-25T04:22:12.217Z,8.73
2023-04-25T04:25:16.310Z,8.98
2023-04-25T04:28:47.888Z,8.96
2023-04-25T04:31:59.393Z,8.78
2023-04-25T04:35:01.928Z,9.14
2023-04-25T04:38:04.503Z,8.84
2023-04-25T04:41:11.598Z,8.48
2023-04-25T04:44:37.817Z,8.22
2023-04-25T04:48:03.368Z,8.52
2023-04-25T04:51:08.688Z,8.61
2023-04-25T04:54:13.721Z,8.40
2023-04-25T04:57:47.116Z,8.40
2023-04-25T05:01:08.862Z,8.22
2023-04-25T05:04:32.610Z,8.07
2023-04-25T05:08:01.114Z,8.67
2023-04-25T05:11:17.879Z,8.26
2023-04-25T05:14:49.389Z,8.15
2023-04-25T05:18:17.135Z,7.85
2023-04-25T05:21:32.694Z,8.25
2023-04-25T05:24:41.112Z,8.23
2023-04-25T05:28:06.895Z,8.34
2023-04-25T05:31:18.707Z,8.68
2023-04-25T05:34:27.051Z,8.52
2023-04-25T05:37:35.566Z,8.42
2023-04-25T05:40:46.090Z,8.45
2023-04-25T05:43:58.276Z,8.25
2023-04-25T05:47:33.088Z,8.46
2023-04-25T05:50:55.891Z,7.91
2023-04-25T05:54:27.007Z,7.85
2023-04-25T05:57:31.220Z,8.11
2023-04-25T06:00:35.009Z,7.87
2023-04-25T06:03:39.184Z,8.02
2023-04-25T06:06:42.017Z,8.13
2023-04-25T06:09:45.383Z,8.22
2023-04-25T06:12:47.824Z,8.20
2023-04-25T06:15:52.548Z,8.30
2023-04-25T06:18:55.147Z,8.16
2023-04-25T06:21:57.529Z,8.36
2023-04-25T06:25:01.336Z,8.26
2023-04-25T06:28:04.543Z,8.63
2023-04-25T06:31:07.771Z,8.73
2023-04-25T06:34:10.444Z,8.70
2023-04-25T06:37:16.269Z,8.51
2023-04-25T06:40:18.832Z,9.07
2023-04-25T06:43:21.443Z,9.37
2023-04-25T06:46:50.986Z,9.33
2023-04-25T06:49:53.323Z,9.53
2023-04-25T06:52:56.431Z,9.64
2023-04-25T06:55:59.647Z,9.62
2023-04-25T06:59:10.236Z,9.45
2023-04-25T07:02:14.750Z,9.73
2023-04-25T07:05:19.469Z,9.35
2023-04-25T07:08:22.663Z,9.25
2023-04-25T07:11:25.388Z,9.48
2023-04-25T07:14:27.884Z,9.34
2023-04-25T07:17:30.973Z,9.32
2023-04-25T07:20:33.934Z,9.45
2023-04-25T07:23:38.571Z,9.75
2023-04-25T07:26:46.686Z,9.81
2023-04-25T07:29:56.000Z,10.06
2023-04-25T07:32:59.412Z,10.13
2023-04-25T07:36:01.887Z,9.91
2023-04-25T07:39:04.841Z,9.54
2023-04-25T07:42:09.378Z,9.69
2023-04-25T07:45:15.141Z,9.78
2023-04-25T07:48:20.921Z,9.54
2023-04-25T07:51:24.664Z,9.45
2023-04-25T07:54:29.757Z,9.18
2023-04-25T07:57:39.445Z,9.38
2023-04-25T08:00:42.774Z,9.25
2023-04-25T08:04:05.685Z,9.56
2023-04-25T08:07:28.843Z,9.68
2023-04-25T08:10:34.576Z,10.26
2023-04-25T08:13:36.964Z,10.35
2023-04-25T08:16:39.732Z,10.56
2023-04-25T08:19:42.299Z,10.49
2023-04-25T08:22:51.928Z,10.76
2023-04-25T08:26:14.633Z,10.82
2023-04-25T08:29:18.738Z,10.63
2023-04-25T08:32:22.545Z,10.68
2023-04-25T08:35:51.878Z,10.59
2023-04-25T08:38:56.193Z,10.16
2023-04-25T08:41:58.890Z,10.08
2023-04-25T08:45:06.627Z,9.77
2023-04-25T08:48:14.995Z,9.70
2023-04-25T08:51:29.095Z,9.97
2023-04-25T08:54:34.534Z,10.29
2023-04-25T08:57:43.908Z,10.39
2023-04-25T09:00:48.310Z,11.09
2023-04-25T09:03:51.966Z,11.07
2023-04-25T09:06:54.577Z,11.01
2023-04-25T09:09:57.063Z,11.01
2023-04-25T09:13:11.386Z,11.24
2023-04-25T09:16:35.573Z,11.69
2023-04-25T09:19:55.612Z,11.68
2023-04-25T09:23:08.369Z,11.53
2023-04-25T09:26:20.627Z,11.33
2023-04-25T09:29:31.306Z,11.54
2023-04-25T09:32:34.447Z,11.88
2023-04-25T09:35:43.620Z,11.94
2023-04-25T09:38:52.357Z,12.12
2023-04-25T09:41:59.307Z,11.71
2023-04-25T09:45:05.666Z,12.01
2023-04-25T09:48:17.941Z,11.70
2023-04-25T09:51:28.901Z,11.76
2023-04-25T09:54:34.437Z,11.87
2023-04-25T09:57:52.219Z,12.27
2023-04-25T10:00:55.882Z,12.91
2023-04-25T10:04:12.805Z,12.72
2023-04-25T10:07:32.890Z,12.47
2023-04-25T10:10:37.501Z,12.21
2023-04-25T10:13:39.911Z,12.68
2023-04-25T10:16:43.773Z,12.74
2023-04-25T10:19:46.525Z,12.76
2023-04-25T10:22:49.465Z,12.54
2023-04-25T10:25:54.828Z,11.75
2023-04-25T10:29:04.858Z,11.29
2023-04-25T10:32:07.215Z,10.92
2023-04-25T10:35:17.372Z,10.72
2023-04-25T10:38:20.382Z,10.62
2023-04-25T10:41:24.108Z,10.72
2023-04-25T10:44:30.660Z,10.72
2023-04-25T10:47:46.169Z,10.72
2023-04-25T10:50:48.917Z,10.53
2023-04-25T10:53:57.346Z,10.33
2023-04-25T10:57:00.298Z,10.72
2023-04-25T11:00:13.623Z,10.68
2023-04-25T11:03:18.463Z,10.21
2023-04-25T11:06:32.747Z,10.72
2023-04-25T11:09:41.177Z,10.30
2023-04-25T11:12:43.550Z,10.29
2023-04-25T11:15:45.994Z,10.24
2023-04-25T11:18:48.394Z,10.09
2023-04-25T11:21:50.996Z,10.25
2023-04-25T11:24:53.368Z,10.44
2023-04-25T11:27:58.373Z,10.42
2023-04-25T11:31:00.730Z,10.43
2023-04-25T11:34:03.648Z,10.62
2023-04-25T11:37:07.265Z,10.53
2023-04-25T11:40:13.865Z,10.77
2023-04-25T11:43:16.350Z,10.63
2023-04-25T11:46:21.224Z,10.78
2023-04-25T11:49:23.617Z,10.88
2023-04-25T11:52:25.938Z,10.84
2023-04-25T11:55:31.925Z,11.09
2023-04-25T11:58:34.410Z,11.54
2023-04-25T12:01:39.808Z,11.45
2023-04-25T12:04:42.861Z,11.55
2023-04-25T12:07:45.626Z,11.44
2023-04-25T12:10:48.230Z,11.62
2023-04-25T12:13:55.005Z,11.58
2023-04-25T12:16:59.029Z,11.59
2023-04-25T12:20:01.771Z,11.39
2023-04-25T12:23:08.477Z,11.19
2023-04-25T12:26:10.745Z,11.10
2023-04-25T12:29:24.936Z,11.32
2023-04-25T12:32:30.099Z,11.16
2023-04-25T12:35:33.824Z,10.97
2023-04-25T12:38:41.350Z,10.91
2023-04-25T12:41:43.760Z,10.88
2023-04-25T12:44:47.531Z,10.96
2023-04-25T12:47:50.107Z,10.88
2023-04-25T12:50:53.348Z,10.85
2023-04-25T12:53:55.813Z,10.80
2023-04-25T12:56:58.352Z,10.83
2023-04-25T13:00:00.712Z,10.78
2023-04-25T13:03:03.511Z,10.71
2023-04-25T13:06:06.732Z,10.77
2023-04-25T13:09:09.615Z,10.68
2023-04-25T13:12:11.948Z,10.72
2023-04-25T13:15:16.520Z,11.07
2023-04-25T13:18:19.069Z,10.88
2023-04-25T13:21:21.415Z,10.82
2023-04-25T13:24:23.704Z,10.93
2023-04-25T13:27:26.132Z,10.90
2023-04-25T13:30:28.436Z,10.92
2023-04-25T13:33:30.906Z,10.89
2023-04-25T13:36:33.465Z,10.82
2023-04-25T13:39:35.990Z,10.93
2023-04-25T13:42:39.591Z,10.83
2023-04-25T13:45:42.351Z,10.78
2023-04-25T13:48:47.624Z,10.73
2023-04-25T13:51:49.981Z,11.00
2023-04-25T13:54:52.535Z,11.11
2023-04-25T13:57:54.958Z,11.17
2023-04-25T14:00:57.317Z,11.18
2023-04-25T14:03:59.777Z,11.14
2023-04-25T14:07:03.299Z,11.12
2023-04-25T14:10:07.025Z,11.19
2023-04-25T14:13:10.805Z,11.34
2023-04-25T14:16:13.343Z,11.27
2023-04-25T14:19:21.652Z,11.28
2023-04-25T14:22:24.735Z,11.38
2023-04-25T14:25:27.356Z,11.38
2023-04-25T14:28:29.744Z,11.69
2023-04-25T14:31:32.156Z,11.12
2023-04-25T14:34:34.748Z,11.30
2023-04-25T14:37:37.196Z,11.42
2023-04-25T14:40:40.682Z,11.74
2023-04-25T14:43:43.434Z,11.50
2023-04-25T14:46:46.059Z,11.83
2023-04-25T14:49:55.039Z,12.06
2023-04-25T14:53:00.216Z,11.94
2023-04-25T14:56:02.732Z,11.83
2023-04-25T14:59:05.308Z,11.94
2023-04-25T15:02:07.888Z,11.85
2023-04-25T15:05:11.258Z,12.03
2023-04-25T15:08:13.780Z,11.78
2023-04-25T15:11:16.193Z,11.58
2023-04-25T15:14:19.222Z,11.51
2023-04-25T15:17:21.528Z,11.50
2023-04-25T15:20:24.265Z,11.73
2023-04-25T15:23:28.421Z,11.50
2023-04-25T15:26:32.032Z,11.28
2023-04-25T15:29:34.289Z,11.50
2023-04-25T15:32:36.634Z,11.55
2023-04-25T15:35:38.943Z,11.59
2023-04-25T15:38:41.575Z,11.46
2023-04-25T15:41:43.969Z,11.32
2023-04-25T15:44:46.653Z,11.09
2023-04-25T15:47:49.158Z,11.22
2023-04-25T15:50:51.775Z,11.01
2023-04-25T15:53:54.622Z,10.82
2023-04-25T15:56:57.561Z,10.82
2023-04-25T16:00:00.200Z,10.66
2023-04-25T16:03:03.927Z,10.63
2023-04-25T16:06:06.418Z,10.35
2023-04-25T16:09:08.858Z,10.31
2023-04-25T16:12:12.124Z,10.12
2023-04-25T16:15:15.050Z,10.06
2023-04-25T16:18:17.528Z,10.00
2023-04-25T16:21:19.970Z,9.80
2023-04-25T16:24:22.371Z,9.40
2023-04-25T16:27:24.717Z,9.52
2023-04-25T16:30:27.156Z,9.27
2023-04-25T16:33:29.600Z,8.98
2023-04-25T16:36:32.758Z,9.16
2023-04-25T16:39:35.226Z,8.96
2023-04-25T16:42:37.829Z,8.83
2023-04-25T16:45:40.078Z,8.69
2023-04-25T16:48:42.363Z,8.72
2023-04-25T16:51:44.981Z,8.51
2023-04-25T16:54:47.276Z,8.32
2023-04-25T16:57:49.754Z,8.50
2023-04-25T17:00:52.418Z,8.32
2023-04-25T17:03:55.224Z,8.42
2023-04-25T17:06:57.693Z,8.44
2023-04-25T17:10:00.162Z,8.12
2023-04-25T17:13:02.727Z,8.21
2023-04-25T17:16:05.426Z,8.14
2023-04-25T17:19:08.109Z,8.17
2023-04-25T17:22:10.389Z,7.83
2023-04-25T17:25:12.911Z,7.77
2023-04-25T17:28:15.337Z,7.69
2023-04-25T17:31:18.049Z,7.61
2023-04-25T17:34:20.990Z,7.59
2023-04-25T17:37:23.773Z,7.42
2023-04-25T17:40:27.018Z,7.38
2023-04-25T17:43:29.668Z,7.47
2023-04-25T17:46:32.035Z,7.40
2023-04-25T17:49:34.428Z,7.43
2023-04-25T17:52:38.737Z,7.56
2023-04-25T17:55:43.771Z,7.55
2023-04-25T17:58:46.136Z,7.44
2023-04-25T18:01:48.988Z,7.43
2023-04-25T18:04:52.411Z,7.52
2023-04-25T18:07:55.047Z,7.51
2023-04-25T18:10:57.843Z,7.51
2023-04-25T18:14:01.019Z,7.58
2023-04-25T18:17:08.201Z,7.54
2023-04-25T18:20:15.108Z,7.60
2023-04-25T18:23:17.558Z,7.52
2023-04-25T18:26:20.374Z,7.49
2023-04-25T18:32:33.188Z,7.49
2023-04-25T18:35:38.567Z,7.40
2023-04-25T18:38:42.945Z,7.37
2023-04-25T18:41:55.228Z,7.35
2023-04-25T18:45:01.085Z,7.49
2023-04-25T18:48:03.931Z,7.53
2023-04-25T18:51:06.965Z,7.36
2023-04-25T18:54:11.237Z,7.33
2023-04-25T18:57:16.127Z,7.35
2023-04-25T19:00:18.693Z,7.45
2023-04-25T19:03:22.521Z,7.45
2023-04-25T19:06:28.001Z,7.41
2023-04-25T19:09:30.536Z,7.42
2023-04-25T19:12:33.708Z,7.42
2023-04-25T19:15:36.277Z,7.38
2023-04-25T19:18:39.019Z,7.42
2023-04-25T19:21:41.907Z,7.32
2023-04-25T19:24:44.224Z,7.37
2023-04-25T19:27:46.734Z,7.41
2023-04-25T19:30:49.488Z,7.42
2023-04-25T19:33:52.339Z,7.25
2023-04-25T19:36:55.755Z,7.28
2023-04-25T19:39:58.216Z,7.23
2023-04-25T19:43:00.650Z,7.30
2023-04-25T19:46:02.926Z,7.33
2023-04-25T19:49:09.005Z,7.32
2023-04-25T19:52:15.059Z,7.41
2023-04-25T19:55:18.203Z,7.43
2023-04-25T19:58:21.275Z,7.37
2023-04-25T20:01:23.613Z,7.10
2023-04-25T20:04:26.463Z,7.09
2023-04-25T20:07:28.944Z,6.97
2023-04-25T20:10:31.838Z,6.96
2023-04-25T20:13:34.273Z,6.98
2023-04-25T20:16:36.720Z,6.88
2023-04-25T20:19:39.788Z,6.86
2023-04-25T20:22:42.069Z,6.94
2023-04-25T20:25:44.346Z,6.92
2023-04-25T20:28:46.780Z,6.92
2023-04-25T20:31:50.914Z,6.94
2023-04-25T20:34:53.231Z,6.78
2023-04-25T20:37:55.681Z,6.92
2023-04-25T20:40:58.545Z,6.84
2023-04-25T20:44:02.955Z,6.93
2023-04-25T20:47:07.456Z,6.86
2023-04-25T20:50:12.221Z,6.73
2023-04-25T20:53:15.316Z,6.74
2023-04-25T20:56:17.640Z,6.74
2023-04-25T20:59:20.139Z,6.65
2023-04-25T21:02:22.785Z,6.63
2023-04-25T21:05:25.158Z,6.70
2023-04-25T21:08:27.489Z,6.64
2023-04-25T21:11:30.064Z,6.50
2023-04-25T21:14:32.388Z,6.44
2023-04-25T21:17:34.676Z,6.47
2023-04-25T21:20:37.401Z,6.47
2023-04-25T21:23:39.780Z,6.44
2023-04-25T21:26:42.319Z,6.40
2023-04-25T21:29:45.560Z,6.55
2023-04-25T21:32:50.534Z,6.62
2023-04-25T21:35:52.904Z,6.55
2023-04-25T21:38:55.469Z,6.50
2023-04-25T21:41:57.924Z,6.39
2023-04-25T21:45:01.476Z,6.35
2023-04-25T21:48:04.484Z,6.29
2023-04-25T21:51:06.885Z,6.20
2023-04-25T21:54:09.208Z,6.24
2023-04-25T21:57:11.491Z,6.09
2023-04-25T22:00:21.213Z,6.20
2023-04-25T22:03:23.602Z,6.01
2023-04-25T22:06:26.358Z,5.96
2023-04-25T22:09:29.341Z,6.02
2023-04-25T22:12:31.696Z,6.12
2023-04-25T22:15:35.603Z,6.09
2023-04-25T22:18:39.292Z,6.09
2023-04-25T22:21:41.786Z,6.07
2023-04-25T22:24:44.421Z,5.99
2023-04-25T22:27:48.142Z,5.97
2023-04-25T22:30:50.633Z,5.80
2023-04-25T22:33:52.950Z,5.83
2023-04-25T22:36:55.655Z,5.73
2023-04-25T22:39:58.139Z,5.56
2023-04-25T22:43:00.620Z,5.44
2023-04-25T22:46:03.496Z,5.49
2023-04-25T22:49:06.022Z,5.47
2023-04-25T22:52:09.698Z,5.51
2023-04-25T22:55:13.125Z,5.47
2023-04-25T22:58:15.520Z,5.50
2023-04-25T23:01:19.327Z,5.42
2023-04-25T23:04:21.972Z,5.32
2023-04-25T23:07:24.385Z,5.19
2023-04-25T23:10:28.817Z,5.13
2023-04-25T23:13:31.708Z,5.10
2023-04-25T23:16:34.645Z,5.09
2023-04-25T23:19:37.014Z,5.04
2023-04-25T23:22:39.572Z,4.96
2023-04-25T23:25:42.103Z,4.83
2023-04-25T23:28:45.230Z,4.82
2023-04-25T23:31:47.588Z,4.67
2023-04-25T23:34:49.924Z,4.63
2023-04-25T23:37:52.176Z,4.57
2023-04-25T23:40:54.516Z,4.41
2023-04-25T23:43:56.908Z,4.31
2023-04-25T23:46:59.276Z,4.29
2023-04-25T23:50:01.705Z,4.22
2023-04-25T23:53:04.274Z,4.11
2023-04-25T23:56:06.762Z,4.01
2023-04-25T23:59:09.212Z,4.06
